Time;durP1;ratioP1;P1;durP2;ratioP2;P2;SDS_P1;SDS_P2;PMS_P1;PMS_P2;Temp;Humidity;BMP_temperature;BMP_pressure;BME280_temperature;BME280_humidity;BME280_pressure;Samples;Min_cycle;Max_cycle;Signal;HPM_P1;HPM_P2
2021/04/29 00:00:11;;;;;;;18.88;9.65;;;;;;;;;;5047881;28;20126;-66
2021/04/29 00:02:39;;;;;;;17.85;10.82;;;;;;;;;;5049136;28;20084;-66
2021/04/29 00:05:07;;;;;;;13.93;9.38;;;;;;;;;;5048252;28;20400;-66
2021/04/29 00:07:35;;;;;;;14.85;9.45;;;;;;;;;;5047493;28;20404;-67
2021/04/29 00:10:03;;;;;;;18.45;10.45;;;;;;;;;;5048330;28;20496;-67
2021/04/29 00:12:31;;;;;;;18.63;10.43;;;;;;;;;;5047396;28;20126;-66
2021/04/29 00:14:58;;;;;;;17.70;10.07;;;;;;;;;;5049158;28;20053;-66
2021/04/29 00:17:27;;;;;;;16.35;9.77;;;;;;;;;;5048724;28;20132;-67
2021/04/29 00:19:54;;;;;;;15.85;9.55;;;;;;;;;;5044631;28;20057;-67
2021/04/29 00:22:22;;;;;;;15.35;8.77;;;;;;;;;;5043513;28;20052;-66
2021/04/29 00:24:49;;;;;;;13.35;9.30;;;;;;;;;;5048771;28;20276;-67
2021/04/29 00:27:17;;;;;;;15.68;8.55;;;;;;;;;;5048896;28;20133;-67
2021/04/29 00:29:44;;;;;;;13.20;8.23;;;;;;;;;;5045037;28;20135;-66
2021/04/29 00:32:12;;;;;;;15.32;8.02;;;;;;;;;;5049826;28;20045;-66
2021/04/29 00:34:41;;;;;;;15.20;8.90;;;;;;;;;;5052472;28;20040;-66
2021/04/29 00:37:08;;;;;;;15.05;7.75;;;;;;;;;;5052948;28;20037;-66
2021/04/29 00:39:35;;;;;;;10.07;7.40;;;;;;;;;;5051959;28;20468;-66
2021/04/29 00:42:03;;;;;;;10.70;7.15;;;;;;;;;;5050714;28;20048;-67
2021/04/29 00:44:32;;;;;;;10.95;7.13;;;;;;;;;;5052725;28;20052;-66
2021/04/29 00:47:00;;;;;;;12.00;6.90;;;;;;;;;;5053902;28;20496;-66
2021/04/29 00:49:28;;;;;;;12.52;6.68;;;;;;;;;;5051649;28;20135;-66
2021/04/29 00:51:56;;;;;;;10.57;6.38;;;;;;;;;;5052238;28;20447;-66
2021/04/29 00:54:25;;;;;;;11.95;6.32;;;;;;;;;;5050403;28;20056;-67
2021/04/29 00:56:52;;;;;;;12.57;6.43;;;;;;;;;;5045611;28;20107;-67
2021/04/29 00:59:20;;;;;;;8.07;5.30;;;;;;;;;;5061548;28;20041;-67
2021/04/29 01:01:51;;;;;;;10.15;5.45;;;;;;;;;;5058537;28;20048;-67
2021/04/29 01:04:21;;;;;;;10.52;5.55;;;;;;;;;;5071686;28;20110;-66
2021/04/29 01:06:49;;;;;;;11.60;6.18;;;;;;;;;;5071488;28;20044;-66
2021/04/29 01:09:22;;;;;;;9.23;5.13;;;;;;;;;;5072626;28;20049;-67
2021/04/29 01:11:50;;;;;;;8.27;5.00;;;;;;;;;;5067846;28;20049;-67
2021/04/29 01:14:18;;;;;;;9.23;4.90;;;;;;;;;;5055292;28;20056;-67
2021/04/29 01:16:46;;;;;;;11.55;4.88;;;;;;;;;;5071317;28;20479;-66
2021/04/29 01:19:14;;;;;;;10.27;5.00;;;;;;;;;;5072753;28;20393;-67
2021/04/29 01:21:43;;;;;;;8.60;5.30;;;;;;;;;;5071573;28;20770;-66
2021/04/29 01:24:13;;;;;;;8.98;4.60;;;;;;;;;;5073040;28;20055;-66
2021/04/29 01:26:52;;;;;;;7.95;4.97;;;;;;;;;;5069750;28;20050;-67
2021/04/29 01:29:22;;;;;;;8.05;4.75;;;;;;;;;;5073096;28;20044;-66
2021/04/29 01:31:51;;;;;;;8.50;4.55;;;;;;;;;;5069476;28;20131;-67
2021/04/29 01:34:20;;;;;;;8.02;4.15;;;;;;;;;;5071915;28;20484;-67
2021/04/29 01:36:48;;;;;;;6.85;4.28;;;;;;;;;;5069358;28;20113;-67
2021/04/29 01:39:16;;;;;;;7.13;4.13;;;;;;;;;;5069554;28;20059;-66
2021/04/29 01:41:45;;;;;;;7.75;4.72;;;;;;;;;;5067973;28;20479;-66
2021/04/29 01:44:14;;;;;;;8.95;4.32;;;;;;;;;;5069422;28;20044;-66
2021/04/29 01:46:41;;;;;;;8.73;4.10;;;;;;;;;;5071479;28;20048;-67
2021/04/29 01:49:10;;;;;;;5.97;4.13;;;;;;;;;;5070563;28;20131;-67
2021/04/29 01:51:39;;;;;;;7.18;4.10;;;;;;;;;;5052479;28;20542;-67
2021/04/29 01:54:07;;;;;;;6.55;3.97;;;;;;;;;;5067878;28;20055;-68
2021/04/29 01:56:36;;;;;;;6.45;4.13;;;;;;;;;;5069952;28;20055;-67
2021/04/29 01:59:04;;;;;;;5.75;3.60;;;;;;;;;;5069527;28;20403;-66
2021/04/29 02:01:33;;;;;;;7.85;3.95;;;;;;;;;;5067945;28;20087;-67
2021/04/29 02:04:00;;;;;;;7.47;4.20;;;;;;;;;;5049632;28;20059;-67
2021/04/29 02:06:28;;;;;;;7.63;3.40;;;;;;;;;;5051625;28;20743;-66
2021/04/29 02:08:56;;;;;;;7.18;3.60;;;;;;;;;;5050837;28;20048;-67
2021/04/29 02:11:23;;;;;;;5.45;3.58;;;;;;;;;;5049873;28;20052;-67
2021/04/29 02:13:53;;;;;;;7.50;4.15;;;;;;;;;;5050944;28;20124;-67
2021/04/29 02:16:23;;;;;;;5.95;3.70;;;;;;;;;;5050908;28;20139;-67
2021/04/29 02:18:52;;;;;;;4.70;3.50;;;;;;;;;;5048068;28;20049;-67
2021/04/29 02:21:21;;;;;;;6.43;3.63;;;;;;;;;;5050662;28;20556;-66
2021/04/29 02:23:49;;;;;;;7.43;3.42;;;;;;;;;;5047979;28;20075;-66
2021/04/29 02:26:19;;;;;;;4.80;3.63;;;;;;;;;;5050289;28;20045;-66
2021/04/29 02:28:46;;;;;;;6.53;3.75;;;;;;;;;;5046938;28;20041;-67
2021/04/29 02:31:15;;;;;;;5.13;3.47;;;;;;;;;;5049779;28;20138;-66
2021/04/29 02:33:43;;;;;;;4.40;3.17;;;;;;;;;;5049533;28;20076;-67
2021/04/29 02:36:11;;;;;;;7.30;3.30;;;;;;;;;;5052005;28;20055;-67
2021/04/29 02:38:39;;;;;;;6.85;3.25;;;;;;;;;;5048580;28;20095;-67
2021/04/29 02:41:07;;;;;;;7.15;3.90;;;;;;;;;;5044350;28;20049;-66
2021/04/29 02:43:35;;;;;;;6.57;3.38;;;;;;;;;;5050965;28;20135;-67
2021/04/29 02:46:04;;;;;;;7.82;3.85;;;;;;;;;;5050149;28;20076;-66
2021/04/29 02:48:31;;;;;;;8.13;3.83;;;;;;;;;;5049971;28;20048;-67
2021/04/29 02:51:01;;;;;;;6.03;3.78;;;;;;;;;;5049893;28;20059;-66
2021/04/29 02:53:35;;;;;;;4.55;3.25;;;;;;;;;;5049233;28;20053;-67
2021/04/29 02:56:03;;;;;;;5.80;3.10;;;;;;;;;;5051234;28;20056;-66
2021/04/29 02:58:31;;;;;;;5.57;3.25;;;;;;;;;;5049295;28;20064;-67
2021/04/29 03:01:00;;;;;;;6.35;3.42;;;;;;;;;;5051210;28;20067;-66
2021/04/29 03:03:28;;;;;;;5.68;3.30;;;;;;;;;;5050971;28;20045;-68
2021/04/29 03:05:56;;;;;;;4.63;2.85;;;;;;;;;;5042761;28;20072;-67
2021/04/29 03:08:24;;;;;;;5.65;2.90;;;;;;;;;;5048943;28;20135;-68
2021/04/29 03:10:52;;;;;;;4.30;2.78;;;;;;;;;;5049236;28;20084;-67
2021/04/29 03:13:20;;;;;;;3.47;2.40;;;;;;;;;;5050455;28;20056;-67
2021/04/29 03:15:47;;;;;;;6.82;2.53;;;;;;;;;;5050503;28;20138;-67
2021/04/29 03:18:14;;;;;;;4.68;2.60;;;;;;;;;;5050212;28;20504;-67
2021/04/29 03:20:42;;;;;;;6.47;2.30;;;;;;;;;;5039066;28;20512;-67
2021/04/29 03:23:10;;;;;;;4.60;2.30;;;;;;;;;;5047034;28;20062;-67
2021/04/29 03:25:38;;;;;;;4.25;2.28;;;;;;;;;;5049337;28;20049;-67
2021/04/29 03:28:06;;;;;;;4.72;2.35;;;;;;;;;;5050004;28;20107;-67
2021/04/29 03:30:34;;;;;;;3.75;2.03;;;;;;;;;;5050274;28;20085;-66
2021/04/29 03:33:01;;;;;;;3.78;2.13;;;;;;;;;;5050264;28;20045;-67
2021/04/29 03:35:30;;;;;;;4.28;3.15;;;;;;;;;;5049660;28;20401;-66
2021/04/29 03:37:57;;;;;;;2.58;1.88;;;;;;;;;;5047824;28;20049;-67
2021/04/29 03:40:25;;;;;;;2.85;1.90;;;;;;;;;;5050975;28;20115;-67
2021/04/29 03:42:53;;;;;;;4.65;2.22;;;;;;;;;;5047714;28;20421;-67
2021/04/29 03:45:22;;;;;;;3.17;2.13;;;;;;;;;;5050730;28;20045;-67
2021/04/29 03:47:50;;;;;;;4.18;1.98;;;;;;;;;;5049637;28;20053;-66
2021/04/29 03:50:17;;;;;;;4.35;1.85;;;;;;;;;;5050328;28;20127;-67
2021/04/29 03:52:45;;;;;;;5.07;1.92;;;;;;;;;;5047648;28;20538;-66
2021/04/29 03:55:13;;;;;;;3.95;1.70;;;;;;;;;;5044915;28;20128;-66
2021/04/29 03:57:40;;;;;;;3.88;1.92;;;;;;;;;;5049366;28;20049;-67
2021/04/29 04:00:09;;;;;;;2.63;1.73;;;;;;;;;;5049881;28;20084;-67
2021/04/29 04:02:37;;;;;;;5.60;1.92;;;;;;;;;;5061794;28;20092;-66
2021/04/29 04:05:05;;;;;;;5.85;1.88;;;;;;;;;;5068849;28;20084;-66
2021/04/29 04:07:33;;;;;;;2.80;1.67;;;;;;;;;;5067632;28;20052;-67
2021/04/29 04:10:01;;;;;;;2.22;1.58;;;;;;;;;;5073289;28;20143;-66
2021/04/29 04:12:28;;;;;;;1.73;1.33;;;;;;;;;;5072035;28;20143;-68
2021/04/29 04:14:55;;;;;;;3.35;1.63;;;;;;;;;;5072611;28;20135;-69
2021/04/29 04:17:24;;;;;;;1.65;1.27;;;;;;;;;;5071160;28;20068;-67
2021/04/29 04:20:13;;;;;;;6.28;1.77;;;;;;;;;;5073906;28;20056;-69
2021/04/29 04:22:41;;;;;;;2.05;1.25;;;;;;;;;;5070304;28;20059;-67
2021/04/29 04:25:09;;;;;;;2.65;1.30;;;;;;;;;;5071357;28;20545;-67
2021/04/29 04:27:37;;;;;;;2.85;1.20;;;;;;;;;;5072878;28;20543;-67
2021/04/29 04:30:05;;;;;;;2.83;1.02;;;;;;;;;;5073586;28;20064;-67
2021/04/29 04:32:33;;;;;;;1.73;1.10;;;;;;;;;;5072491;28;20102;-66
2021/04/29 04:35:01;;;;;;;1.55;1.00;;;;;;;;;;5071677;28;20478;-67
2021/04/29 04:37:30;;;;;;;2.22;1.05;;;;;;;;;;5070917;28;20055;-66
2021/04/29 04:39:57;;;;;;;4.85;1.02;;;;;;;;;;5064233;28;20048;-66
2021/04/29 04:42:25;;;;;;;3.55;0.98;;;;;;;;;;5067056;28;20351;-66
2021/04/29 04:44:53;;;;;;;1.60;0.95;;;;;;;;;;5068001;28;20056;-66
2021/04/29 04:47:20;;;;;;;2.03;1.10;;;;;;;;;;5068770;28;20052;-66
2021/04/29 04:49:49;;;;;;;1.27;0.80;;;;;;;;;;5066070;28;20433;-67
2021/04/29 04:52:16;;;;;;;2.28;0.90;;;;;;;;;;5070041;28;20221;-65
2021/04/29 04:54:47;;;;;;;2.78;0.82;;;;;;;;;;5069579;28;20143;-66
2021/04/29 04:57:15;;;;;;;2.95;0.90;;;;;;;;;;5070278;28;20492;-66
2021/04/29 04:59:43;;;;;;;2.88;0.98;;;;;;;;;;5069971;28;20040;-66
2021/04/29 05:02:11;;;;;;;3.50;1.00;;;;;;;;;;5060006;28;20570;-65
2021/04/29 05:04:39;;;;;;;4.18;0.90;;;;;;;;;;5049933;28;20131;-67
2021/04/29 05:07:06;;;;;;;3.30;1.02;;;;;;;;;;5049410;28;20141;-66
2021/04/29 05:09:35;;;;;;;1.73;1.00;;;;;;;;;;5046940;28;20080;-66
2021/04/29 05:12:04;;;;;;;2.85;1.48;;;;;;;;;;5041833;28;20441;-66
2021/04/29 05:14:31;;;;;;;1.95;1.20;;;;;;;;;;5035518;28;20485;-66
2021/04/29 05:16:59;;;;;;;2.17;0.90;;;;;;;;;;5040576;28;20072;-66
2021/04/29 05:19:28;;;;;;;4.88;0.93;;;;;;;;;;5042316;28;20094;-65
2021/04/29 05:21:55;;;;;;;4.50;1.30;;;;;;;;;;5046206;28;20389;-66
2021/04/29 05:24:24;;;;;;;2.00;1.10;;;;;;;;;;5056187;28;20419;-67
2021/04/29 05:26:52;;;;;;;4.28;1.20;;;;;;;;;;5047623;28;20049;-65
2021/04/29 05:29:21;;;;;;;3.80;1.25;;;;;;;;;;5048136;28;20051;-66
2021/04/29 05:31:48;;;;;;;2.70;1.30;;;;;;;;;;5048947;28;20140;-66
2021/04/29 05:34:16;;;;;;;2.75;1.10;;;;;;;;;;5046900;28;20084;-66
2021/04/29 05:36:43;;;;;;;2.97;1.30;;;;;;;;;;5047045;28;20041;-66
2021/04/29 05:39:12;;;;;;;5.47;1.27;;;;;;;;;;5044200;28;20124;-66
2021/04/29 05:41:40;;;;;;;7.82;1.25;;;;;;;;;;5044460;28;20060;-67
2021/04/29 05:44:08;;;;;;;5.82;1.35;;;;;;;;;;5046925;28;20562;-66
2021/04/29 05:46:37;;;;;;;7.22;1.13;;;;;;;;;;5052331;28;20095;-66
2021/04/29 05:49:05;;;;;;;3.75;1.30;;;;;;;;;;5046451;28;20055;-66
2021/04/29 05:51:32;;;;;;;2.15;1.08;;;;;;;;;;5045848;28;20076;-67
2021/04/29 05:54:00;;;;;;;3.47;1.15;;;;;;;;;;5046230;28;20056;-66
2021/04/29 05:56:28;;;;;;;1.77;1.00;;;;;;;;;;5046630;28;20044;-66
2021/04/29 05:58:55;;;;;;;3.50;1.00;;;;;;;;;;5046185;28;20145;-66
2021/04/29 06:01:23;;;;;;;2.10;1.10;;;;;;;;;;5050865;28;20055;-66
2021/04/29 06:03:52;;;;;;;2.85;1.00;;;;;;;;;;5068126;28;20044;-66
2021/04/29 06:06:19;;;;;;;5.43;1.55;;;;;;;;;;5066575;28;20060;-66
2021/04/29 06:08:48;;;;;;;4.43;1.10;;;;;;;;;;5066223;28;20052;-66
2021/04/29 06:11:15;;;;;;;1.75;1.00;;;;;;;;;;5063264;28;20099;-67
2021/04/29 06:13:44;;;;;;;2.55;1.20;;;;;;;;;;5065478;28;20127;-66
2021/04/29 06:16:13;;;;;;;6.75;1.92;;;;;;;;;;5066751;28;20044;-67
2021/04/29 06:18:41;;;;;;;2.63;1.17;;;;;;;;;;5055415;28;20447;-66
2021/04/29 06:21:10;;;;;;;4.35;1.17;;;;;;;;;;5047052;28;20076;-67
2021/04/29 06:23:37;;;;;;;2.45;1.10;;;;;;;;;;5066424;28;20090;-66
2021/04/29 06:26:05;;;;;;;1.80;1.13;;;;;;;;;;5066429;28;20140;-66
2021/04/29 06:28:33;;;;;;;3.58;1.40;;;;;;;;;;5065547;28;20123;-66
2021/04/29 06:31:01;;;;;;;6.00;1.33;;;;;;;;;;5065260;28;20048;-69
2021/04/29 06:33:29;;;;;;;4.82;1.20;;;;;;;;;;5065413;28;20132;-66
2021/04/29 06:35:57;;;;;;;11.48;1.88;;;;;;;;;;5065734;28;20455;-67
2021/04/29 06:38:25;;;;;;;2.20;1.00;;;;;;;;;;5060981;28;20076;-66
2021/04/29 06:40:53;;;;;;;4.85;1.40;;;;;;;;;;5063579;28;20055;-65
2021/04/29 06:43:21;;;;;;;2.92;1.20;;;;;;;;;;5063864;28;20052;-66
2021/04/29 06:45:49;;;;;;;6.93;1.58;;;;;;;;;;5067184;28;20045;-65
2021/04/29 06:48:17;;;;;;;8.27;1.20;;;;;;;;;;5063209;28;20102;-66
2021/04/29 06:50:45;;;;;;;7.13;1.38;;;;;;;;;;5064555;28;20044;-66
2021/04/29 06:53:13;;;;;;;8.98;1.92;;;;;;;;;;5065174;28;20052;-65
2021/04/29 06:55:42;;;;;;;11.25;2.25;;;;;;;;;;5065975;28;20369;-68
2021/04/29 06:58:10;;;;;;;15.70;1.88;;;;;;;;;;5064345;28;20044;-66
2021/04/29 07:00:40;;;;;;;10.20;1.77;;;;;;;;;;5060918;28;20476;-66
2021/04/29 07:03:08;;;;;;;6.65;1.40;;;;;;;;;;5051204;28;20080;-65
2021/04/29 07:05:36;;;;;;;4.28;1.70;;;;;;;;;;5045728;28;20065;-65
2021/04/29 07:08:05;;;;;;;4.25;1.50;;;;;;;;;;5042854;28;20126;-66
2021/04/29 07:10:34;;;;;;;3.72;1.60;;;;;;;;;;5032279;28;20088;-68
2021/04/29 07:13:07;;;;;;;9.43;1.67;;;;;;;;;;5032428;28;20087;-66
2021/04/29 07:15:36;;;;;;;6.47;1.90;;;;;;;;;;5042008;28;20072;-66
2021/04/29 07:18:05;;;;;;;12.85;1.80;;;;;;;;;;5042669;28;20171;-66
2021/04/29 07:20:34;;;;;;;13.68;2.20;;;;;;;;;;5044261;28;20045;-68
2021/04/29 07:23:03;;;;;;;7.55;1.98;;;;;;;;;;5043540;28;20972;-66
2021/04/29 07:25:31;;;;;;;2.15;1.52;;;;;;;;;;5037945;28;20044;-65
2021/04/29 07:27:59;;;;;;;2.97;1.77;;;;;;;;;;5043946;28;20761;-65
2021/04/29 07:30:28;;;;;;;4.25;1.83;;;;;;;;;;5042564;28;20127;-66
2021/04/29 07:32:56;;;;;;;8.55;2.30;;;;;;;;;;5039359;28;20049;-67
2021/04/29 07:35:25;;;;;;;16.38;3.05;;;;;;;;;;5040499;28;20053;-69
2021/04/29 07:37:53;;;;;;;7.68;2.05;;;;;;;;;;5041856;28;20111;-66
2021/04/29 07:40:21;;;;;;;5.90;1.92;;;;;;;;;;5041925;28;20045;-68
2021/04/29 07:42:50;;;;;;;9.13;2.00;;;;;;;;;;5035516;28;20072;-67
2021/04/29 07:45:18;;;;;;;3.83;1.77;;;;;;;;;;5042452;28;20053;-67
2021/04/29 07:47:47;;;;;;;6.82;2.03;;;;;;;;;;5045781;28;20071;-66
2021/04/29 07:50:14;;;;;;;12.07;2.30;;;;;;;;;;5047197;28;20080;-66
2021/04/29 07:52:43;;;;;;;5.95;2.15;;;;;;;;;;5042563;28;20053;-67
2021/04/29 07:55:11;;;;;;;17.98;3.00;;;;;;;;;;5039287;28;20072;-66
2021/04/29 07:57:39;;;;;;;7.57;2.30;;;;;;;;;;5043427;28;20053;-66
2021/04/29 08:00:09;;;;;;;7.63;2.30;;;;;;;;;;5041886;28;20045;-66
2021/04/29 08:02:37;;;;;;;5.88;1.90;;;;;;;;;;5058080;28;20084;-66
2021/04/29 08:05:07;;;;;;;3.20;1.77;;;;;;;;;;5066096;28;20388;-66
2021/04/29 08:07:36;;;;;;;8.95;2.15;;;;;;;;;;5065397;28;20056;-66
2021/04/29 08:10:05;;;;;;;4.03;1.80;;;;;;;;;;5057122;28;20055;-66
2021/04/29 08:12:33;;;;;;;7.38;2.20;;;;;;;;;;5063273;28;20118;-66
2021/04/29 08:15:01;;;;;;;12.60;2.80;;;;;;;;;;5064542;28;20299;-68
2021/04/29 08:17:29;;;;;;;7.75;2.20;;;;;;;;;;5056851;28;20048;-69
2021/04/29 08:19:58;;;;;;;7.53;2.00;;;;;;;;;;5064685;28;20040;-67
2021/04/29 08:22:28;;;;;;;4.65;2.10;;;;;;;;;;5064050;28;20122;-67
2021/04/29 08:24:57;;;;;;;4.88;2.58;;;;;;;;;;5058956;28;20044;-67
2021/04/29 08:27:25;;;;;;;3.45;1.90;;;;;;;;;;5067574;28;20500;-67
2021/04/29 08:29:53;;;;;;;3.70;2.05;;;;;;;;;;5055170;28;20048;-67
2021/04/29 08:32:21;;;;;;;5.25;2.22;;;;;;;;;;5057702;28;20145;-67
2021/04/29 08:34:49;;;;;;;4.10;2.00;;;;;;;;;;5063884;28;20055;-68
2021/04/29 08:37:17;;;;;;;6.90;2.08;;;;;;;;;;5063794;28;20068;-68
2021/04/29 08:39:46;;;;;;;3.28;2.25;;;;;;;;;;5063934;28;20051;-68
2021/04/29 08:42:15;;;;;;;5.82;2.53;;;;;;;;;;5063120;28;20171;-67
2021/04/29 08:44:43;;;;;;;5.25;2.38;;;;;;;;;;5066233;28;20052;-68
2021/04/29 08:47:18;;;;;;;;;;;;;;;;;;5064678;28;20057;-66
2021/04/29 08:49:50;;;;;;;2.75;2.20;;;;;;;;;;5066754;28;19924;-67
2021/04/29 08:52:18;;;;;;;4.20;2.33;;;;;;;;;;5062813;28;20056;-67
2021/04/29 08:54:47;;;;;;;9.88;2.70;;;;;;;;;;5063298;28;20407;-67
2021/04/29 08:57:15;;;;;;;6.05;3.20;;;;;;;;;;5069111;28;20044;-67
2021/04/29 08:59:43;;;;;;;5.28;3.17;;;;;;;;;;5066721;28;20129;-67
2021/04/29 09:02:11;;;;;;;8.05;3.13;;;;;;;;;;5067546;28;20064;-67
2021/04/29 09:04:39;;;;;;;6.80;2.72;;;;;;;;;;5069700;28;20397;-67
2021/04/29 09:07:14;;;;;;;10.38;2.63;;;;;;;;;;5069564;28;20127;-67
2021/04/29 09:09:42;;;;;;;7.07;2.80;;;;;;;;;;5069678;28;20048;-68
2021/04/29 09:12:11;;;;;;;6.50;3.30;;;;;;;;;;5069811;28;20075;-69
2021/04/29 09:14:40;;;;;;;4.65;2.92;;;;;;;;;;5067637;28;20053;-67
2021/04/29 09:17:08;;;;;;;8.30;3.15;;;;;;;;;;5066819;28;20055;-66
2021/04/29 09:19:46;;;;;;;6.43;3.22;;;;;;;;;;5069348;28;20659;-67
2021/04/29 09:22:20;;;;;;;6.22;3.50;;;;;;;;;;5067703;28;20045;-69
2021/04/29 09:24:47;;;;;;;5.60;3.22;;;;;;;;;;5068561;28;20227;-67
2021/04/29 09:27:17;;;;;;;8.63;4.03;;;;;;;;;;5068931;28;20045;-68
2021/04/29 09:29:49;;;;;;;9.77;3.83;;;;;;;;;;5068783;28;20484;-67
2021/04/29 09:32:27;;;;;;;6.47;3.33;;;;;;;;;;5059104;28;20068;-67
2021/04/29 09:34:56;;;;;;;8.02;3.65;;;;;;;;;;5068871;28;20048;-67
2021/04/29 09:37:28;;;;;;;8.50;3.63;;;;;;;;;;5066940;28;20083;-67
2021/04/29 09:40:01;;;;;;;8.30;3.70;;;;;;;;;;5068857;28;20384;-67
2021/04/29 09:42:30;;;;;;;6.43;3.60;;;;;;;;;;5069995;28;20060;-67
2021/04/29 09:44:58;;;;;;;8.15;3.63;;;;;;;;;;5068863;28;20051;-68
2021/04/29 09:47:26;;;;;;;8.77;3.40;;;;;;;;;;5070060;28;20052;-67
2021/04/29 09:49:54;;;;;;;8.50;3.60;;;;;;;;;;5069721;28;20048;-67
2021/04/29 09:52:23;;;;;;;8.75;3.78;;;;;;;;;;5069715;28;20523;-69
2021/04/29 09:54:52;;;;;;;6.82;3.05;;;;;;;;;;5069355;28;20527;-67
2021/04/29 09:57:23;;;;;;;5.28;3.30;;;;;;;;;;5070269;28;20131;-67
2021/04/29 09:59:56;;;;;;;4.15;3.00;;;;;;;;;;5068028;28;20045;-68
2021/04/29 10:02:24;;;;;;;9.68;3.63;;;;;;;;;;5062223;28;20064;-67
2021/04/29 10:04:53;;;;;;;8.32;3.85;;;;;;;;;;5039860;28;20358;-67
2021/04/29 10:07:22;;;;;;;6.75;3.80;;;;;;;;;;5046672;28;20091;-67
2021/04/29 10:09:50;;;;;;;6.00;3.95;;;;;;;;;;5052344;28;20119;-67
2021/04/29 10:12:19;;;;;;;7.10;3.60;;;;;;;;;;5048291;28;20049;-69
2021/04/29 10:14:48;;;;;;;14.10;4.13;;;;;;;;;;5047056;28;20059;-67
2021/04/29 10:17:17;;;;;;;12.13;4.70;;;;;;;;;;5047008;28;20059;-67
2021/04/29 10:19:46;;;;;;;8.95;3.90;;;;;;;;;;5048773;28;20516;-70
2021/04/29 10:22:15;;;;;;;8.02;3.70;;;;;;;;;;5046674;28;20052;-68
2021/04/29 10:24:44;;;;;;;9.15;4.50;;;;;;;;;;5045130;28;20137;-68
2021/04/29 10:27:12;;;;;;;8.13;4.10;;;;;;;;;;5042500;28;20044;-67
2021/04/29 10:29:41;;;;;;;12.95;4.57;;;;;;;;;;5048775;28;20151;-68
2021/04/29 10:32:09;;;;;;;9.57;4.60;;;;;;;;;;5046297;28;20508;-67
2021/04/29 10:34:40;;;;;;;10.68;4.50;;;;;;;;;;5040039;28;20049;-66
2021/04/29 10:37:19;;;;;;;7.13;4.22;;;;;;;;;;5047352;28;20041;-67
2021/04/29 10:39:56;;;;;;;10.02;4.45;;;;;;;;;;5046394;28;20047;-68
2021/04/29 10:42:24;;;;;;;9.13;4.13;;;;;;;;;;5036701;28;20106;-70
2021/04/29 10:44:54;;;;;;;8.45;4.20;;;;;;;;;;5046618;28;20704;-68
2021/04/29 10:47:22;;;;;;;11.02;4.28;;;;;;;;;;5046296;28;20067;-67
2021/04/29 10:49:51;;;;;;;10.32;4.25;;;;;;;;;;5044991;28;20095;-68
2021/04/29 10:52:19;;;;;;;7.80;3.90;;;;;;;;;;5044755;28;20053;-67
2021/04/29 10:54:50;;;;;;;11.80;4.20;;;;;;;;;;5041338;28;20052;-68
2021/04/29 10:57:18;;;;;;;5.75;4.25;;;;;;;;;;5047577;28;20052;-67
2021/04/29 10:59:48;;;;;;;9.73;5.03;;;;;;;;;;5046388;28;20052;-68
2021/04/29 11:02:30;;;;;;;10.20;4.30;;;;;;;;;;5056134;28;20060;-67
2021/04/29 11:04:59;;;;;;;11.23;4.43;;;;;;;;;;5059439;28;20432;-68
2021/04/29 11:07:28;;;;;;;8.63;4.13;;;;;;;;;;5061620;28;20048;-67
2021/04/29 11:10:00;;;;;;;6.95;4.53;;;;;;;;;;5057921;28;20106;-68
2021/04/29 11:12:42;;;;;;;10.55;4.40;;;;;;;;;;5067456;28;20049;-68
2021/04/29 11:15:19;;;;;;;11.75;4.30;;;;;;;;;;5064062;28;20048;-68
2021/04/29 11:17:47;;;;;;;9.65;4.50;;;;;;;;;;5067947;28;20048;-67
2021/04/29 11:20:16;;;;;;;8.85;4.43;;;;;;;;;;5059270;28;20045;-69
2021/04/29 11:22:49;;;;;;;10.32;3.97;;;;;;;;;;5065854;28;20052;-67
2021/04/29 11:25:17;;;;;;;10.07;4.50;;;;;;;;;;5066125;28;20076;-68
2021/04/29 11:27:44;;;;;;;9.27;4.85;;;;;;;;;;5068143;28;20539;-68
2021/04/29 11:30:14;;;;;;;9.25;4.70;;;;;;;;;;5066366;28;20048;-67
2021/04/29 11:32:54;;;;;;;10.50;4.95;;;;;;;;;;5055768;28;20049;-66
2021/04/29 11:35:25;;;;;;;8.85;4.20;;;;;;;;;;5064738;28;20131;-67
2021/04/29 11:37:53;;;;;;;14.18;4.68;;;;;;;;;;5067169;28;20048;-68
2021/04/29 11:40:21;;;;;;;9.38;5.35;;;;;;;;;;5067758;28;20044;-68
2021/04/29 11:42:52;;;;;;;8.23;4.20;;;;;;;;;;5062651;28;20133;-67
2021/04/29 11:45:22;;;;;;;8.27;4.65;;;;;;;;;;5069506;28;20048;-68
2021/04/29 11:47:55;;;;;;;9.50;4.90;;;;;;;;;;5066832;28;20085;-66
2021/04/29 11:50:25;;;;;;;7.15;4.60;;;;;;;;;;5067575;28;20041;-67
2021/04/29 11:53:03;;;;;;;7.38;4.63;;;;;;;;;;5065368;28;20148;-67
2021/04/29 11:55:32;;;;;;;7.25;4.38;;;;;;;;;;5068685;28;20048;-67
2021/04/29 11:58:04;;;;;;;9.70;4.13;;;;;;;;;;5067789;28;20045;-67
2021/04/29 12:00:33;;;;;;;7.55;4.47;;;;;;;;;;5060304;28;21006;-68
2021/04/29 12:03:01;;;;;;;8.10;3.35;;;;;;;;;;5052302;28;20064;-70
2021/04/29 12:05:33;;;;;;;5.85;3.65;;;;;;;;;;355621;28;10022001;-67
2021/04/29 12:08:01;;;;;;;7.57;3.72;;;;;;;;;;5045808;28;20308;-67
2021/04/29 12:10:41;;;;;;;13.35;3.70;;;;;;;;;;5047486;28;20128;-71
2021/04/29 12:13:09;;;;;;;7.25;3.92;;;;;;;;;;5048220;28;20044;-68
2021/04/29 12:15:38;;;;;;;7.35;3.00;;;;;;;;;;5048466;28;20041;-69
2021/04/29 12:18:12;;;;;;;9.25;3.40;;;;;;;;;;5042130;28;20135;-68
2021/04/29 12:20:42;;;;;;;8.05;3.63;;;;;;;;;;5047430;28;20049;-68
2021/04/29 12:23:10;;;;;;;6.07;4.03;;;;;;;;;;5044053;28;20108;-67
2021/04/29 12:25:39;;;;;;;6.30;3.80;;;;;;;;;;5043271;28;20508;-68
2021/04/29 12:28:17;;;;;;;9.10;3.65;;;;;;;;;;5042383;28;20134;-68
2021/04/29 12:30:45;;;;;;;11.05;4.18;;;;;;;;;;5045214;28;20320;-68
2021/04/29 12:33:17;;;;;;;9.02;3.67;;;;;;;;;;5045429;28;20566;-68
2021/04/29 12:35:51;;;;;;;5.47;3.40;;;;;;;;;;5048897;28;20569;-68
2021/04/29 12:38:20;;;;;;;9.88;3.03;;;;;;;;;;5046435;28;20124;-68
2021/04/29 12:40:48;;;;;;;6.05;3.35;;;;;;;;;;5045518;28;20053;-67
2021/04/29 12:43:18;;;;;;;6.47;3.22;;;;;;;;;;5045488;28;20567;-67
2021/04/29 12:45:49;;;;;;;5.63;2.40;;;;;;;;;;5045947;28;20188;-67
2021/04/29 12:48:24;;;;;;;5.40;3.05;;;;;;;;;;5046766;28;20052;-69
2021/04/29 12:51:03;;;;;;;9.38;2.63;;;;;;;;;;5046606;28;20053;-68
2021/04/29 12:53:31;;;;;;;7.32;2.63;;;;;;;;;;5048134;28;20045;-67
2021/04/29 12:55:59;;;;;;;7.80;3.20;;;;;;;;;;5045457;28;20049;-68
2021/04/29 12:58:28;;;;;;;6.78;2.75;;;;;;;;;;5046690;28;20445;-67
2021/04/29 13:00:57;;;;;;;7.40;3.28;;;;;;;;;;5040642;28;20071;-67
2021/04/29 13:03:35;;;;;;;11.27;3.00;;;;;;;;;;5065339;28;20140;-69
2021/04/29 13:06:06;;;;;;;5.88;2.33;;;;;;;;;;5067492;28;20103;-70
2021/04/29 13:08:53;;;;;;;5.63;2.63;;;;;;;;;;5060935;28;20045;-68
2021/04/29 13:11:28;;;;;;;7.75;2.95;;;;;;;;;;5064968;28;20044;-65
2021/04/29 13:14:03;;;;;;;6.35;2.78;;;;;;;;;;5062039;28;20059;-66
2021/04/29 13:16:30;;;;;;;;;;;;;;;;;;5065069;28;20044;-66
2021/04/29 13:18:59;;;;;;;7.82;3.65;;;;;;;;;;5066921;28;19928;-68
2021/04/29 13:21:27;;;;;;;10.30;3.17;;;;;;;;;;5063681;28;20063;-67
2021/04/29 13:23:55;;;;;;;12.32;3.30;;;;;;;;;;5062332;28;20496;-66
2021/04/29 13:26:24;;;;;;;8.45;3.15;;;;;;;;;;5061201;28;20053;-66
2021/04/29 13:28:51;;;;;;;7.07;2.95;;;;;;;;;;5066432;28;20080;-69
2021/04/29 13:31:20;;;;;;;11.95;3.28;;;;;;;;;;5066168;28;20052;-65
2021/04/29 13:33:48;;;;;;;6.88;2.47;;;;;;;;;;5063912;28;20130;-66
2021/04/29 13:36:17;;;;;;;7.13;3.00;;;;;;;;;;5066873;28;20067;-68
2021/04/29 13:38:47;;;;;;;6.65;3.15;;;;;;;;;;5061242;28;20135;-67
2021/04/29 13:41:15;;;;;;;11.43;3.55;;;;;;;;;;5066190;28;20269;-66
2021/04/29 13:43:43;;;;;;;6.90;3.47;;;;;;;;;;5061880;28;20616;-66
2021/04/29 13:46:11;;;;;;;5.60;3.53;;;;;;;;;;5064650;28;20040;-68
2021/04/29 13:48:40;;;;;;;9.77;3.53;;;;;;;;;;5065843;28;20531;-66
2021/04/29 13:51:07;;;;;;;7.28;3.38;;;;;;;;;;5062905;28;20183;-67
2021/04/29 13:53:36;;;;;;;7.47;3.88;;;;;;;;;;5062433;28;20052;-66
2021/04/29 13:56:05;;;;;;;8.70;3.58;;;;;;;;;;5065708;28;20129;-66
2021/04/29 13:58:33;;;;;;;12.48;3.83;;;;;;;;;;5063390;28;20125;-67
2021/04/29 14:01:01;;;;;;;11.48;3.85;;;;;;;;;;5066074;28;20464;-67
2021/04/29 14:03:29;;;;;;;12.40;4.10;;;;;;;;;;5065623;28;20131;-69
2021/04/29 14:05:57;;;;;;;7.90;3.22;;;;;;;;;;5069638;28;20048;-67
2021/04/29 14:08:25;;;;;;;5.57;3.60;;;;;;;;;;5071226;28;20148;-66
2021/04/29 14:10:53;;;;;;;8.38;3.75;;;;;;;;;;5066119;28;20052;-69
2021/04/29 14:13:22;;;;;;;9.85;4.00;;;;;;;;;;5065825;28;20127;-66
2021/04/29 14:15:49;;;;;;;8.52;3.60;;;;;;;;;;5067999;28;20080;-67
2021/04/29 14:18:17;;;;;;;14.80;3.67;;;;;;;;;;5068335;28;20047;-66
2021/04/29 14:20:46;;;;;;;6.00;3.60;;;;;;;;;;5068309;28;20052;-66
2021/04/29 14:23:14;;;;;;;7.72;3.92;;;;;;;;;;5059003;28;20500;-67
2021/04/29 14:25:42;;;;;;;9.43;4.30;;;;;;;;;;5065447;28;20048;-66
2021/04/29 14:28:10;;;;;;;10.50;3.90;;;;;;;;;;5067863;28;20055;-67
2021/04/29 14:30:39;;;;;;;8.20;4.03;;;;;;;;;;5069231;28;20129;-66
2021/04/29 14:33:07;;;;;;;8.25;4.28;;;;;;;;;;5067142;28;20112;-67
2021/04/29 14:35:35;;;;;;;9.95;4.13;;;;;;;;;;5067998;28;20538;-67
2021/04/29 14:38:03;;;;;;;9.27;4.65;;;;;;;;;;5067717;28;20055;-66
2021/04/29 14:40:31;;;;;;;11.60;5.13;;;;;;;;;;5068285;28;20048;-66
2021/04/29 14:42:59;;;;;;;8.25;4.32;;;;;;;;;;5066149;28;20053;-67
2021/04/29 14:45:27;;;;;;;7.70;3.95;;;;;;;;;;5064657;28;20122;-66
2021/04/29 14:47:56;;;;;;;9.68;4.20;;;;;;;;;;5068612;28;20055;-67
2021/04/29 14:50:25;;;;;;;10.05;4.45;;;;;;;;;;5060019;28;20067;-66